createdAt,value
2019-03-05T00:00:58.824Z,4.37
2019-03-05T00:03:32.913Z,4.00
2019-03-05T00:06:04.572Z,2.93
2019-03-05T00:08:36.197Z,3.43
2019-03-05T00:11:07.845Z,3.77
2019-03-05T00:13:39.477Z,4.03
2019-03-05T00:16:11.241Z,3.70
2019-03-05T00:18:42.898Z,4.33
2019-03-05T00:21:14.528Z,3.83
2019-03-05T00:24:22.631Z,3.83
2019-03-05T00:26:54.310Z,4.30
2019-03-05T00:30:02.682Z,3.47
2019-03-05T00:32:34.313Z,4.23
2019-03-05T00:35:24.546Z,4.47
2019-03-05T00:38:29.055Z,4.20
2019-03-05T00:41:38.100Z,4.57
2019-03-05T00:44:38.940Z,4.27
2019-03-05T00:47:24.408Z,3.80
2019-03-05T00:50:33.770Z,3.93
2019-03-05T00:53:21.097Z,3.60
2019-03-05T00:56:10.855Z,3.40
2019-03-05T00:59:11.696Z,4.10
2019-03-05T01:02:34.193Z,3.90
2019-03-05T01:05:53.908Z,3.33
2019-03-05T01:08:26.750Z,3.60
2019-03-05T01:10:58.390Z,4.20
2019-03-05T01:13:30.073Z,3.43
2019-03-05T01:16:02.837Z,3.77
2019-03-05T01:18:34.479Z,3.30
2019-03-05T01:21:06.569Z,3.53
2019-03-05T01:23:38.293Z,3.50
2019-03-05T01:26:12.142Z,3.83
2019-03-05T01:28:43.901Z,3.27
2019-03-05T01:31:53.306Z,3.80
2019-03-05T01:34:29.874Z,3.13
2019-03-05T01:37:03.873Z,3.87
2019-03-05T01:39:53.826Z,3.67
2019-03-05T01:42:25.565Z,2.83
2019-03-05T01:44:57.341Z,2.70
2019-03-05T01:47:28.990Z,3.53
2019-03-05T01:50:00.647Z,2.43
2019-03-05T01:52:32.277Z,2.70
2019-03-05T01:55:04.146Z,2.93
2019-03-05T01:57:35.838Z,2.37
2019-03-05T02:00:11.603Z,2.70
2019-03-05T02:02:42.329Z,2.43
2019-03-05T02:05:15.693Z,2.93
2019-03-05T02:07:47.886Z,2.90
2019-03-05T02:10:20.938Z,3.77
2019-03-05T02:12:52.656Z,3.87
2019-03-05T02:15:24.284Z,3.43
2019-03-05T02:17:55.910Z,3.03
2019-03-05T02:20:27.547Z,3.03
2019-03-05T02:23:09.004Z,4.83
2019-03-05T02:25:51.635Z,3.10
2019-03-05T02:28:35.711Z,4.30
2019-03-05T02:31:27.451Z,2.70
2019-03-05T02:34:21.311Z,3.97
2019-03-05T02:37:32.329Z,3.83
2019-03-05T02:40:20.440Z,3.47
2019-03-05T02:43:16.470Z,3.50
2019-03-05T02:46:19.585Z,3.33
2019-03-05T02:49:51.592Z,2.93
2019-03-05T02:53:04.715Z,3.23
2019-03-05T02:56:12.209Z,3.37
2019-03-05T02:58:43.384Z,3.13
2019-03-05T03:01:27.261Z,3.23
2019-03-05T03:04:04.604Z,2.77
2019-03-05T03:06:37.119Z,2.40
2019-03-05T03:09:50.816Z,2.90
2019-03-05T03:12:23.187Z,2.70
2019-03-05T03:14:54.801Z,2.40
2019-03-05T03:17:26.458Z,1.60
2019-03-05T03:19:58.187Z,2.23
2019-03-05T03:22:29.935Z,2.20
2019-03-05T03:25:01.579Z,2.30
2019-03-05T03:27:33.223Z,2.67
2019-03-05T03:30:06.041Z,2.43
2019-03-05T03:32:37.872Z,2.27
2019-03-05T03:35:10.498Z,2.13
2019-03-05T03:37:42.386Z,2.33
2019-03-05T03:40:15.963Z,2.93
2019-03-05T03:42:47.616Z,2.00
2019-03-05T03:45:23.325Z,1.70
2019-03-05T03:47:54.974Z,2.57
2019-03-05T03:50:26.605Z,2.07
2019-03-05T03:52:58.298Z,2.13
2019-03-05T03:55:30.100Z,2.00
2019-03-05T03:58:01.851Z,2.57
2019-03-05T04:00:33.676Z,2.33
2019-03-05T04:03:05.328Z,2.17
2019-03-05T04:05:37.169Z,2.27
2019-03-05T04:08:10.499Z,2.80
2019-03-05T04:10:42.373Z,2.23
2019-03-05T04:13:14.050Z,2.33
2019-03-05T04:15:45.774Z,2.80
2019-03-05T04:18:17.424Z,2.90
2019-03-05T04:20:51.676Z,2.37
2019-03-05T04:23:23.325Z,2.60
2019-03-05T04:25:54.974Z,3.00
2019-03-05T04:28:26.626Z,2.37
2019-03-05T04:30:58.315Z,3.37
2019-03-05T04:33:29.996Z,2.77
2019-03-05T04:36:01.616Z,3.77
2019-03-05T04:38:33.308Z,3.67
2019-03-05T04:41:05.013Z,2.97
2019-03-05T04:43:38.191Z,2.87
2019-03-05T04:46:28.162Z,3.63
2019-03-05T04:49:31.625Z,3.47
2019-03-05T04:52:05.859Z,3.77
2019-03-05T04:54:37.564Z,3.47
2019-03-05T04:57:09.302Z,3.83
2019-03-05T04:59:40.963Z,3.63
2019-03-05T05:02:12.654Z,3.93
2019-03-05T05:04:44.456Z,3.10
2019-03-05T05:07:16.247Z,4.77
2019-03-05T05:09:48.829Z,4.07
2019-03-05T05:12:20.665Z,4.30
2019-03-05T05:14:52.663Z,3.97
2019-03-05T05:17:24.399Z,4.50
2019-03-05T05:19:56.114Z,4.77
2019-03-05T05:22:27.900Z,5.33
2019-03-05T05:24:59.727Z,3.93
2019-03-05T05:27:31.534Z,5.40
2019-03-05T05:30:03.959Z,5.23
2019-03-05T05:32:35.719Z,5.57
2019-03-05T05:35:07.493Z,4.33
2019-03-05T05:37:39.342Z,4.97
2019-03-05T05:40:21.104Z,5.03
2019-03-05T05:42:52.899Z,5.43
2019-03-05T05:45:27.386Z,5.23
2019-03-05T05:47:59.157Z,4.37
2019-03-05T05:50:30.941Z,5.13
2019-03-05T05:53:02.690Z,5.50
2019-03-05T05:55:34.682Z,5.87
2019-03-05T05:58:06.547Z,5.20
2019-03-05T06:00:41.582Z,5.40
2019-03-05T06:03:13.257Z,5.17
2019-03-05T06:05:45.070Z,5.50
2019-03-05T06:08:16.913Z,6.30
2019-03-05T06:10:48.834Z,5.30
2019-03-05T06:13:20.595Z,5.50
2019-03-05T06:15:52.406Z,4.30
2019-03-05T06:18:24.131Z,5.40
2019-03-05T06:20:55.923Z,4.53
2019-03-05T06:23:27.711Z,5.03
2019-03-05T06:25:59.483Z,4.70
2019-03-05T06:28:31.265Z,6.03
2019-03-05T06:31:03.154Z,6.10
2019-03-05T06:33:34.860Z,3.97
2019-03-05T06:36:06.538Z,4.30
2019-03-05T06:38:38.163Z,4.90
2019-03-05T06:41:09.893Z,4.90
2019-03-05T06:43:41.506Z,5.67
2019-03-05T06:46:13.150Z,4.07
2019-03-05T06:48:44.882Z,5.10
2019-03-05T06:51:16.500Z,4.00
2019-03-05T06:53:48.149Z,4.67
2019-03-05T06:56:19.790Z,3.97
2019-03-05T06:58:51.446Z,4.27
2019-03-05T07:01:23.085Z,4.20
2019-03-05T07:03:54.726Z,4.73
2019-03-05T07:06:51.324Z,3.53
2019-03-05T07:09:35.939Z,4.33
2019-03-05T07:12:14.614Z,5.07
2019-03-05T07:14:57.571Z,4.13
2019-03-05T07:17:36.008Z,4.27
2019-03-05T07:20:22.234Z,3.97
2019-03-05T07:23:19.804Z,4.20
2019-03-05T07:25:51.533Z,3.50
2019-03-05T07:28:23.171Z,3.40
2019-03-05T07:30:54.808Z,4.73
2019-03-05T07:33:26.473Z,4.10
2019-03-05T07:35:58.210Z,3.50
2019-03-05T07:38:29.845Z,3.40
2019-03-05T07:41:01.498Z,3.50
2019-03-05T07:43:36.349Z,3.50
2019-03-05T07:46:06.781Z,2.93
2019-03-05T07:48:38.450Z,2.93
2019-03-05T07:51:10.085Z,3.53
2019-03-05T07:53:41.748Z,2.90
2019-03-05T07:56:13.402Z,2.90
2019-03-05T07:58:45.061Z,2.63
2019-03-05T08:01:22.351Z,2.87
2019-03-05T08:03:50.293Z,2.17
2019-03-05T08:06:22.017Z,2.60
2019-03-05T08:09:30.970Z,2.37
2019-03-05T08:12:18.568Z,2.40
2019-03-05T08:14:59.061Z,2.80
2019-03-05T08:17:30.814Z,1.93
2019-03-05T08:20:03.589Z,2.50
2019-03-05T08:22:35.443Z,2.33
2019-03-05T08:25:08.358Z,3.13
2019-03-05T08:27:40.010Z,2.27
2019-03-05T08:30:14.638Z,2.20
2019-03-05T08:32:46.589Z,2.50
2019-03-05T08:35:18.242Z,2.13
2019-03-05T08:37:49.873Z,1.90
2019-03-05T08:40:21.627Z,2.20
2019-03-05T08:42:53.249Z,1.93
2019-03-05T08:45:29.217Z,1.93
2019-03-05T08:47:58.736Z,2.17
2019-03-05T08:50:30.477Z,2.37
2019-03-05T08:53:02.230Z,2.40
2019-03-05T08:55:33.968Z,2.20
2019-03-05T08:58:05.819Z,2.33
2019-03-05T09:00:37.558Z,2.47
2019-03-05T09:03:09.204Z,2.00
2019-03-05T09:05:40.940Z,2.60
2019-03-05T09:08:12.593Z,2.37
2019-03-05T09:10:44.347Z,2.53
2019-03-05T09:13:15.994Z,2.43
2019-03-05T09:15:47.796Z,2.23
2019-03-05T09:18:19.420Z,2.57
2019-03-05T09:20:51.261Z,2.43
2019-03-05T09:23:22.923Z,2.57
2019-03-05T09:25:54.565Z,2.80
2019-03-05T09:28:26.195Z,2.27
2019-03-05T09:30:58.033Z,2.37
2019-03-05T09:33:29.759Z,2.50
2019-03-05T09:36:01.422Z,2.30
2019-03-05T09:38:33.050Z,2.50
2019-03-05T09:41:04.704Z,2.87
2019-03-05T09:43:36.434Z,3.20
2019-03-05T09:46:08.103Z,2.87
2019-03-05T09:48:39.771Z,3.10
2019-03-05T09:51:11.406Z,2.77
2019-03-05T09:53:43.063Z,3.07
2019-03-05T09:56:15.309Z,2.73
2019-03-05T09:58:46.957Z,2.80
2019-03-05T10:01:18.593Z,2.53
2019-03-05T10:03:50.264Z,3.27
2019-03-05T10:06:21.901Z,2.73
2019-03-05T10:08:53.557Z,2.83
2019-03-05T10:11:25.307Z,2.73
2019-03-05T10:13:56.934Z,2.90
2019-03-05T10:16:28.593Z,2.37
2019-03-05T10:19:00.240Z,2.77
2019-03-05T10:21:31.911Z,2.23
2019-03-05T10:24:10.389Z,2.00
2019-03-05T10:26:37.568Z,2.30
2019-03-05T10:29:09.197Z,2.07
2019-03-05T10:31:42.246Z,1.87
2019-03-05T10:34:13.983Z,2.03
2019-03-05T10:36:45.660Z,2.20
2019-03-05T10:39:30.409Z,1.50
2019-03-05T10:41:59.268Z,2.37
2019-03-05T10:44:31.103Z,2.23
2019-03-05T10:47:02.934Z,2.30
2019-03-05T10:49:34.667Z,2.30
2019-03-05T10:52:06.309Z,1.57
2019-03-05T10:54:37.934Z,2.27
2019-03-05T10:57:09.777Z,2.30
2019-03-05T10:59:41.405Z,2.20
2019-03-05T11:02:14.392Z,2.03
2019-03-05T11:04:46.164Z,2.00
2019-03-05T11:07:18.092Z,2.33
2019-03-05T11:09:51.626Z,2.10
2019-03-05T11:12:23.262Z,2.27
2019-03-05T11:14:54.884Z,2.30
2019-03-05T11:17:26.830Z,2.67
2019-03-05T11:19:58.448Z,2.63
2019-03-05T11:22:30.189Z,2.60
2019-03-05T11:25:01.838Z,2.57
2019-03-05T11:27:33.564Z,2.33
2019-03-05T11:30:07.350Z,2.43
2019-03-05T11:32:39.184Z,2.00
2019-03-05T11:35:11.331Z,2.13
2019-03-05T11:37:43.091Z,2.30
2019-03-05T11:40:21.034Z,2.40
2019-03-05T11:42:49.202Z,2.17
2019-03-05T11:45:23.038Z,1.97
2019-03-05T11:47:55.280Z,13.93
2019-03-05T11:50:26.918Z,2.63
2019-03-05T11:52:58.562Z,2.40
2019-03-05T11:55:30.394Z,2.20
2019-03-05T11:58:02.022Z,2.60
2019-03-05T12:00:43.117Z,2.13
2019-03-05T12:03:15.390Z,2.37
2019-03-05T12:05:47.039Z,2.80
2019-03-05T12:08:18.806Z,2.30
2019-03-05T12:10:50.464Z,2.27
2019-03-05T12:13:22.414Z,2.10
2019-03-05T12:15:54.477Z,2.10
2019-03-05T12:18:26.141Z,2.20
2019-03-05T12:20:57.789Z,2.10
2019-03-05T12:23:29.502Z,2.70
2019-03-05T12:26:01.238Z,2.73
2019-03-05T12:28:32.901Z,2.10
2019-03-05T12:31:04.748Z,2.20
2019-03-05T12:33:36.409Z,2.07
2019-03-05T12:36:08.337Z,2.07
2019-03-05T12:38:40.017Z,1.80
2019-03-05T12:41:11.661Z,2.87
2019-03-05T12:43:43.312Z,2.57
2019-03-05T12:46:14.955Z,2.10
2019-03-05T12:48:46.701Z,3.40
2019-03-05T12:51:18.516Z,4.83
2019-03-05T12:53:50.249Z,4.80
2019-03-05T12:56:24.195Z,4.57
2019-03-05T12:58:55.544Z,3.30
2019-03-05T13:01:27.181Z,3.80
2019-03-05T13:03:58.828Z,4.27
2019-03-05T13:06:30.459Z,3.67
2019-03-05T13:09:02.443Z,4.07
2019-03-05T13:11:34.082Z,4.10
2019-03-05T13:14:09.394Z,4.13
2019-03-05T13:16:40.503Z,3.37
2019-03-05T13:19:12.402Z,3.20
2019-03-05T13:21:48.007Z,4.40
2019-03-05T13:24:17.676Z,5.70
2019-03-05T13:26:49.301Z,3.23
2019-03-05T13:29:20.941Z,3.00
2019-03-05T13:31:52.563Z,2.63
2019-03-05T13:34:24.214Z,3.27
2019-03-05T13:36:55.850Z,2.43
2019-03-05T13:39:27.605Z,3.13
2019-03-05T13:41:59.222Z,3.67
2019-03-05T13:44:33.938Z,5.23
2019-03-05T13:47:06.913Z,5.00
2019-03-05T13:49:57.525Z,3.73
2019-03-05T13:52:45.692Z,3.47
2019-03-05T13:56:00.504Z,3.40
2019-03-05T13:59:14.449Z,2.90
2019-03-05T14:01:46.192Z,3.40
2019-03-05T14:04:27.324Z,2.73
2019-03-05T14:07:42.660Z,3.00
2019-03-05T14:10:14.402Z,2.73
2019-03-05T14:12:46.030Z,2.70
2019-03-05T14:15:18.673Z,2.80
2019-03-05T14:17:50.377Z,2.30
2019-03-05T14:20:31.641Z,2.93
2019-03-05T14:22:55.646Z,2.63
2019-03-05T14:25:27.339Z,3.27
2019-03-05T14:27:59.037Z,3.17
2019-03-05T14:30:31.002Z,2.43
2019-03-05T14:33:02.706Z,2.73
2019-03-05T14:35:34.544Z,2.50
2019-03-05T14:38:06.390Z,2.23
2019-03-05T14:40:38.339Z,2.67
2019-03-05T14:43:10.193Z,2.30
2019-03-05T14:45:42.139Z,3.00
2019-03-05T14:48:13.858Z,2.80
2019-03-05T14:50:45.522Z,4.00
2019-03-05T14:53:17.245Z,3.53
2019-03-05T14:55:49.018Z,3.60
2019-03-05T14:58:20.742Z,4.73
2019-03-05T15:00:52.558Z,4.03
2019-03-05T15:03:24.178Z,3.53
2019-03-05T15:05:55.858Z,3.10
2019-03-05T15:08:27.689Z,5.50
2019-03-05T15:10:59.422Z,4.37
2019-03-05T15:13:31.897Z,3.40
2019-03-05T15:16:03.613Z,4.50
2019-03-05T15:18:35.248Z,3.07
2019-03-05T15:21:07.015Z,3.97
2019-03-05T15:23:38.702Z,4.03
2019-03-05T15:26:10.357Z,3.13
2019-03-05T15:28:42.001Z,3.47
2019-03-05T15:31:13.636Z,3.40
2019-03-05T15:33:45.287Z,3.20
2019-03-05T15:36:23.765Z,2.37
2019-03-05T15:38:50.566Z,3.53
2019-03-05T15:41:22.236Z,3.20
2019-03-05T15:43:53.906Z,3.83
2019-03-05T15:46:25.627Z,3.83
2019-03-05T15:48:57.283Z,2.50
2019-03-05T15:51:29.034Z,3.73
2019-03-05T15:54:00.758Z,3.80
2019-03-05T15:56:32.397Z,2.70
2019-03-05T15:59:04.026Z,2.80
2019-03-05T16:01:35.670Z,3.17
2019-03-05T16:04:07.288Z,3.10
2019-03-05T16:06:38.921Z,3.17
2019-03-05T16:09:16.028Z,3.00
2019-03-05T16:11:47.866Z,3.30
2019-03-05T16:14:19.590Z,3.20
2019-03-05T16:16:52.026Z,3.07
2019-03-05T16:19:24.518Z,3.27
2019-03-05T16:21:56.161Z,2.97
2019-03-05T16:24:27.801Z,3.63
2019-03-05T16:26:59.466Z,3.50
2019-03-05T16:29:31.187Z,2.27
2019-03-05T16:32:23.104Z,2.70
2019-03-05T16:35:12.852Z,2.40
2019-03-05T16:37:50.442Z,2.10
2019-03-05T16:40:35.115Z,2.40
2019-03-05T16:43:27.987Z,2.57
2019-03-05T16:46:07.497Z,2.77
2019-03-05T16:48:52.301Z,2.80
2019-03-05T16:51:42.230Z,3.40
2019-03-05T16:54:22.745Z,2.70
2019-03-05T16:57:05.873Z,3.10
2019-03-05T16:59:53.258Z,3.83
2019-03-05T17:02:43.898Z,3.53
2019-03-05T17:05:31.878Z,2.83
2019-03-05T17:08:23.330Z,4.00
2019-03-05T17:11:08.593Z,3.80
2019-03-05T17:13:40.336Z,3.27
2019-03-05T17:16:12.187Z,4.63
2019-03-05T17:18:44.022Z,3.83
2019-03-05T17:21:15.636Z,4.03
2019-03-05T17:23:47.389Z,4.47
2019-03-05T17:26:19.472Z,3.63
2019-03-05T17:28:51.308Z,3.80
2019-03-05T17:31:23.047Z,4.30
2019-03-05T17:33:54.680Z,3.73
2019-03-05T17:36:26.565Z,8.03
2019-03-05T17:38:58.494Z,4.63
2019-03-05T17:41:30.130Z,4.30
2019-03-05T17:44:01.763Z,4.63
2019-03-05T17:46:33.386Z,4.33
2019-03-05T17:49:05.123Z,4.63
2019-03-05T17:51:36.745Z,3.90
2019-03-05T17:54:08.484Z,3.77
2019-03-05T17:56:40.253Z,4.07
2019-03-05T17:59:12.119Z,4.43
2019-03-05T18:01:43.765Z,4.67
2019-03-05T18:04:15.417Z,4.37
2019-03-05T18:06:47.037Z,5.07
2019-03-05T18:09:18.984Z,5.00
2019-03-05T18:11:50.933Z,5.10
2019-03-05T18:14:22.567Z,5.60
2019-03-05T18:16:54.304Z,5.00
2019-03-05T18:19:26.274Z,6.07
2019-03-05T18:21:58.011Z,5.07
2019-03-05T18:24:29.666Z,5.50
2019-03-05T18:27:01.325Z,4.87
2019-03-05T18:29:33.092Z,5.20
2019-03-05T18:32:04.946Z,6.30
2019-03-05T18:34:36.598Z,7.00
2019-03-05T18:37:08.249Z,5.57
2019-03-05T18:39:39.918Z,5.10
2019-03-05T18:42:11.545Z,6.60
2019-03-05T18:44:43.255Z,5.97
2019-03-05T18:47:14.997Z,6.53
2019-03-05T18:49:46.676Z,6.27
2019-03-05T18:52:18.305Z,6.40
2019-03-05T18:54:49.954Z,5.60
2019-03-05T18:57:21.585Z,6.83
2019-03-05T18:59:53.233Z,6.37
2019-03-05T19:02:24.980Z,7.10
2019-03-05T19:04:56.658Z,7.07
2019-03-05T19:07:28.296Z,6.93
2019-03-05T19:09:59.975Z,7.60
2019-03-05T19:12:31.625Z,7.17
2019-03-05T19:15:04.636Z,7.17
2019-03-05T19:17:36.286Z,7.93
2019-03-05T19:20:10.458Z,5.53
2019-03-05T19:22:42.113Z,7.90
2019-03-05T19:25:16.518Z,6.67
2019-03-05T19:27:48.367Z,7.17
2019-03-05T19:30:22.170Z,7.30
2019-03-05T19:32:53.937Z,7.53
2019-03-05T19:35:25.709Z,7.37
2019-03-05T19:37:57.574Z,7.50
2019-03-05T19:40:31.234Z,8.23
2019-03-05T19:43:03.381Z,9.47
2019-03-05T19:45:35.307Z,8.70
2019-03-05T19:48:07.367Z,8.03
2019-03-05T19:50:39.432Z,8.27
2019-03-05T19:53:11.445Z,11.07
2019-03-05T19:55:43.342Z,9.13
2019-03-05T19:58:15.149Z,8.50
2019-03-05T20:00:56.985Z,7.80
2019-03-05T20:03:29.076Z,10.90
2019-03-05T20:06:01.369Z,10.37
2019-03-05T20:08:39.931Z,10.23
2019-03-05T20:11:07.577Z,10.13
2019-03-05T20:13:39.693Z,9.00
2019-03-05T20:16:13.554Z,11.37
2019-03-05T20:18:45.454Z,10.57
2019-03-05T20:21:17.769Z,10.33
2019-03-05T20:23:50.280Z,9.13
2019-03-05T20:26:22.509Z,9.00
2019-03-05T20:28:54.442Z,9.80
2019-03-05T20:31:26.670Z,9.37
2019-03-05T20:33:59.180Z,8.87
2019-03-05T20:36:31.796Z,9.67
2019-03-05T20:39:04.861Z,8.27
2019-03-05T20:41:37.279Z,8.83
2019-03-05T20:44:09.773Z,8.80
2019-03-05T20:46:41.915Z,8.70
2019-03-05T20:49:14.388Z,7.73
2019-03-05T20:51:46.421Z,8.90
2019-03-05T20:54:18.531Z,8.80
2019-03-05T20:56:50.871Z,8.90
2019-03-05T20:59:23.093Z,9.10
2019-03-05T21:01:55.577Z,9.53
2019-03-05T21:04:27.851Z,8.73
2019-03-05T21:07:01.307Z,9.30
2019-03-05T21:09:33.762Z,9.13
2019-03-05T21:12:06.269Z,9.60
2019-03-05T21:14:38.777Z,8.93
2019-03-05T21:17:11.065Z,9.27
2019-03-05T21:19:43.305Z,8.07
2019-03-05T21:22:15.376Z,9.80
2019-03-05T21:24:47.368Z,9.30
2019-03-05T21:27:19.561Z,9.13
2019-03-05T21:29:54.224Z,9.30
2019-03-05T21:32:28.779Z,9.80
2019-03-05T21:35:48.248Z,10.13
2019-03-05T21:38:20.297Z,9.83
2019-03-05T21:40:52.347Z,10.20
2019-03-05T21:43:24.360Z,10.00
2019-03-05T21:45:59.046Z,10.33
2019-03-05T21:48:30.706Z,9.67
2019-03-05T21:51:02.482Z,10.87
2019-03-05T21:53:37.438Z,11.00
2019-03-05T21:56:09.392Z,10.63
2019-03-05T21:58:41.029Z,11.03
2019-03-05T22:01:12.678Z,10.40
2019-03-05T22:03:44.357Z,11.27
2019-03-05T22:06:16.078Z,10.60
2019-03-05T22:08:47.732Z,10.00
2019-03-05T22:11:19.594Z,10.03
2019-03-05T22:13:51.254Z,10.90
2019-03-05T22:16:22.881Z,10.13
2019-03-05T22:18:54.514Z,10.67
2019-03-05T22:21:26.153Z,9.73
2019-03-05T22:23:57.801Z,11.40
2019-03-05T22:26:29.451Z,10.97
2019-03-05T22:29:01.102Z,11.27
2019-03-05T22:31:38.814Z,10.57
2019-03-05T22:34:10.445Z,11.07
2019-03-05T22:36:42.094Z,10.93
2019-03-05T22:39:14.125Z,10.60
2019-03-05T22:41:45.749Z,10.30
2019-03-05T22:44:17.390Z,10.70
2019-03-05T22:46:49.006Z,10.93
2019-03-05T22:49:20.657Z,11.40
2019-03-05T22:51:52.353Z,10.43
2019-03-05T22:54:23.986Z,11.20
2019-03-05T22:56:55.813Z,12.23
2019-03-05T22:59:27.458Z,10.70
2019-03-05T23:01:59.216Z,9.67
2019-03-05T23:04:39.785Z,10.87
2019-03-05T23:07:13.445Z,9.90
2019-03-05T23:09:48.408Z,11.33
2019-03-05T23:12:19.954Z,11.00
2019-03-05T23:14:52.006Z,10.63
2019-03-05T23:17:23.638Z,10.33
2019-03-05T23:19:59.966Z,10.20
2019-03-05T23:22:31.701Z,9.70
2019-03-05T23:25:04.046Z,11.60
2019-03-05T23:27:49.439Z,10.20
2019-03-05T23:30:34.510Z,9.13
2019-03-05T23:33:06.233Z,9.70
2019-03-05T23:35:37.971Z,10.23
2019-03-05T23:38:09.704Z,8.97
2019-03-05T23:40:41.341Z,9.70
2019-03-05T23:43:12.967Z,9.33
2019-03-05T23:45:44.614Z,9.13
2019-03-05T23:48:16.245Z,9.67
2019-03-05T23:50:47.885Z,9.90
2019-03-05T23:53:19.742Z,9.67
2019-03-05T23:55:51.586Z,8.90
2019-03-05T23:58:23.314Z,8.13
